createdAt,value
2023-04-13T00:00:28.064Z,24.50
2023-04-13T00:03:19.214Z,23.50
2023-04-13T00:06:00.001Z,23.13
2023-04-13T00:08:49.017Z,23.58
2023-04-13T00:11:22.139Z,22.92
2023-04-13T00:14:09.026Z,24.27
2023-04-13T00:16:42.421Z,22.10
2023-04-13T00:19:29.103Z,22.23
2023-04-13T00:22:04.226Z,21.88
2023-04-13T00:24:51.006Z,24.10
2023-04-13T00:27:26.706Z,25.33
2023-04-13T00:30:18.009Z,24.30
2023-04-13T00:32:52.152Z,27.92
2023-04-13T00:35:39.001Z,25.38
2023-04-13T00:38:12.087Z,26.15
2023-04-13T00:40:58.989Z,29.20
2023-04-13T00:43:39.070Z,33.60
2023-04-13T00:46:33.039Z,29.25
2023-04-13T00:49:22.027Z,30.67
2023-04-13T00:51:55.206Z,26.30
2023-04-13T00:54:42.008Z,37.92
2023-04-13T00:57:15.162Z,30.55
2023-04-13T01:00:13.000Z,31.80
2023-04-13T01:03:08.370Z,31.75
2023-04-13T01:06:12.997Z,30.42
2023-04-13T01:08:54.180Z,31.55
2023-04-13T01:12:14.984Z,29.02
2023-04-13T01:15:15.042Z,32.95
2023-04-13T01:18:05.048Z,32.53
2023-04-13T01:20:47.056Z,35.05
2023-04-13T01:24:03.013Z,39.63
2023-04-13T01:27:04.020Z,43.90
2023-04-13T01:29:38.325Z,42.50
2023-04-13T01:32:25.002Z,37.00
2023-04-13T01:35:05.031Z,54.42
2023-04-13T01:38:00.007Z,33.42
2023-04-13T01:40:51.023Z,48.38
2023-04-13T01:43:26.195Z,65.90
2023-04-13T01:46:23.056Z,54.67
2023-04-13T01:49:04.084Z,37.50
2023-04-13T01:51:51.999Z,48.72
2023-04-13T01:54:29.133Z,54.92
2023-04-13T01:57:17.030Z,62.78
2023-04-13T01:59:50.168Z,55.17
2023-04-13T02:02:37.229Z,80.45
2023-04-13T02:05:27.508Z,45.78
2023-04-13T02:08:16.092Z,48.33
2023-04-13T02:10:56.015Z,48.30
2023-04-13T02:13:50.038Z,46.58
2023-04-13T02:16:37.114Z,31.70
2023-04-13T02:19:17.167Z,36.13
2023-04-13T02:22:04.077Z,53.45
2023-04-13T02:24:37.117Z,38.53
2023-04-13T02:27:24.077Z,45.10
2023-04-13T02:30:04.054Z,39.28
2023-04-13T02:33:00.209Z,39.03
2023-04-13T02:35:54.039Z,29.50
2023-04-13T02:38:44.060Z,34.67
2023-04-13T02:41:31.029Z,31.30
2023-04-13T02:44:25.023Z,42.88
2023-04-13T02:47:13.045Z,41.88
2023-04-13T02:49:51.573Z,32.00
2023-04-13T02:52:38.057Z,29.15
2023-04-13T02:55:19.061Z,30.08
2023-04-13T02:58:13.053Z,36.55
2023-04-13T03:01:07.062Z,26.73
2023-04-13T03:04:01.311Z,29.38
2023-04-13T03:06:56.059Z,34.28
2023-04-13T03:09:50.039Z,32.10
2023-04-13T03:12:23.138Z,29.83
2023-04-13T03:15:14.051Z,31.42
2023-04-13T03:17:54.091Z,27.63
2023-04-13T03:20:48.083Z,37.63
2023-04-13T03:23:36.086Z,32.10
2023-04-13T03:26:09.154Z,29.52
2023-04-13T03:28:58.405Z,26.65
2023-04-13T03:31:31.389Z,27.60
2023-04-13T03:34:18.111Z,27.13
2023-04-13T03:36:51.381Z,25.65
2023-04-13T03:39:31.066Z,26.73
2023-04-13T03:42:11.049Z,26.85
2023-04-13T03:44:44.494Z,34.88
2023-04-13T03:47:31.106Z,33.58
2023-04-13T03:50:04.489Z,26.38
2023-04-13T03:52:51.053Z,37.00
2023-04-13T03:55:24.153Z,40.55
2023-04-13T03:58:11.104Z,26.33
2023-04-13T04:00:58.076Z,28.27
2023-04-13T04:03:45.151Z,48.97
2023-04-13T04:06:18.204Z,38.65
2023-04-13T04:09:05.063Z,40.20
2023-04-13T04:11:38.205Z,47.42
2023-04-13T04:14:26.097Z,45.13
2023-04-13T04:16:59.171Z,32.45
2023-04-13T04:19:46.077Z,36.97
2023-04-13T04:22:19.150Z,30.00
2023-04-13T04:25:06.109Z,27.58
2023-04-13T04:27:39.198Z,39.72
2023-04-13T04:30:28.086Z,76.05
2023-04-13T04:33:08.088Z,61.90
2023-04-13T04:35:59.096Z,48.55
2023-04-13T04:38:39.075Z,56.63
2023-04-13T04:41:33.071Z,75.03
2023-04-13T04:44:23.082Z,37.42
2023-04-13T04:46:56.180Z,80.75
2023-04-13T04:49:43.087Z,63.05
2023-04-13T04:52:25.057Z,42.17
2023-04-13T04:55:20.093Z,34.53
2023-04-13T04:58:14.082Z,35.85
2023-04-13T05:01:08.115Z,71.28
2023-04-13T05:03:55.122Z,46.70
2023-04-13T05:06:33.487Z,69.72
2023-04-13T05:09:21.104Z,50.85
2023-04-13T05:11:54.225Z,68.65
2023-04-13T05:14:41.099Z,24.00
2023-04-13T05:17:24.157Z,31.15
2023-04-13T05:20:13.075Z,46.90
2023-04-13T05:22:46.225Z,44.55
2023-04-13T05:25:34.086Z,93.47
2023-04-13T05:28:14.093Z,46.20
2023-04-13T05:31:08.106Z,53.03
2023-04-13T05:33:56.078Z,33.42
2023-04-13T05:36:36.096Z,65.18
2023-04-13T05:39:23.109Z,31.05
2023-04-13T05:41:56.292Z,42.33
2023-04-13T05:44:43.102Z,23.13
2023-04-13T05:47:23.163Z,41.45
2023-04-13T05:50:10.123Z,34.42
2023-04-13T05:52:43.264Z,19.80
2023-04-13T05:55:31.117Z,20.92
2023-04-13T05:58:04.198Z,24.90
2023-04-13T06:01:04.142Z,20.45
2023-04-13T06:03:51.330Z,21.35
2023-04-13T06:06:27.601Z,22.70
2023-04-13T06:09:15.107Z,21.65
2023-04-13T06:11:48.217Z,17.70
2023-04-13T06:14:35.159Z,21.95
2023-04-13T06:17:08.501Z,24.88
2023-04-13T06:19:55.123Z,24.80
2023-04-13T06:22:35.105Z,23.33
2023-04-13T06:25:23.118Z,22.33
2023-04-13T06:28:03.125Z,20.15
2023-04-13T06:30:57.212Z,21.23
2023-04-13T06:33:51.119Z,22.67
2023-04-13T06:36:38.124Z,21.55
2023-04-13T06:39:11.673Z,21.00
2023-04-13T06:41:58.137Z,19.98
2023-04-13T06:44:38.105Z,22.15
2023-04-13T06:47:32.167Z,22.05
2023-04-13T06:50:27.118Z,22.00
2023-04-13T06:53:21.133Z,22.02
2023-04-13T06:56:15.158Z,20.90
2023-04-13T06:59:06.329Z,21.42
2023-04-13T07:01:39.248Z,25.20
2023-04-13T07:04:29.081Z,32.67
2023-04-13T07:07:04.282Z,21.75
2023-04-13T07:09:51.134Z,20.83
2023-04-13T07:12:31.151Z,21.25
2023-04-13T07:15:18.136Z,23.70
2023-04-13T07:17:59.208Z,20.83
2023-04-13T07:20:46.143Z,21.10
2023-04-13T07:23:26.144Z,19.77
2023-04-13T07:26:20.156Z,17.92
2023-04-13T07:29:07.168Z,20.52
2023-04-13T07:31:40.408Z,22.77
2023-04-13T07:34:28.140Z,19.55
2023-04-13T07:37:08.154Z,18.80
2023-04-13T07:39:55.181Z,23.63
2023-04-13T07:42:28.234Z,17.77
2023-04-13T07:45:17.176Z,23.38
2023-04-13T07:47:50.712Z,21.63
2023-04-13T07:50:37.145Z,22.15
2023-04-13T07:53:10.314Z,19.77
2023-04-13T07:55:57.129Z,21.13
2023-04-13T07:58:30.352Z,24.75
2023-04-13T08:01:24.151Z,16.55
2023-04-13T08:04:11.243Z,26.48
2023-04-13T08:06:44.271Z,20.13
2023-04-13T08:09:31.157Z,21.00
2023-04-13T08:12:04.281Z,20.45
2023-04-13T08:14:51.164Z,18.60
2023-04-13T08:17:24.372Z,18.70
2023-04-13T08:20:15.187Z,20.65
2023-04-13T08:22:48.260Z,20.10
2023-04-13T08:25:35.175Z,21.38
2023-04-13T08:28:09.634Z,18.10
2023-04-13T08:30:56.196Z,16.42
2023-04-13T08:33:29.282Z,16.50
2023-04-13T08:36:16.183Z,17.45
2023-04-13T08:38:49.298Z,16.92
2023-04-13T08:41:38.187Z,18.20
2023-04-13T08:44:13.590Z,18.73
2023-04-13T08:47:00.170Z,16.75
2023-04-13T08:49:41.186Z,17.40
2023-04-13T08:52:28.265Z,18.05
2023-04-13T08:55:05.808Z,17.73
2023-04-13T08:57:55.180Z,17.77
2023-04-13T09:00:30.055Z,19.48
2023-04-13T09:03:19.332Z,17.17
2023-04-13T09:06:06.182Z,16.67
2023-04-13T09:09:00.501Z,17.40
2023-04-13T09:11:50.139Z,17.77
2023-04-13T09:14:32.167Z,18.45
2023-04-13T09:17:32.255Z,17.35
2023-04-13T09:20:37.870Z,20.67
2023-04-13T09:23:24.197Z,16.13
2023-04-13T09:26:17.189Z,17.98
2023-04-13T09:29:04.204Z,15.63
2023-04-13T09:31:47.233Z,17.88
2023-04-13T09:34:42.186Z,17.33
2023-04-13T09:37:36.219Z,15.75
2023-04-13T09:40:25.193Z,15.45
2023-04-13T09:43:02.404Z,15.98
2023-04-13T09:45:53.249Z,16.98
2023-04-13T09:48:28.369Z,18.33
2023-04-13T09:51:16.223Z,15.77
2023-04-13T09:53:51.450Z,15.75
2023-04-13T09:56:53.245Z,16.67
2023-04-13T09:59:30.313Z,18.02
2023-04-13T10:02:25.335Z,14.88
2023-04-13T10:05:13.242Z,16.75
2023-04-13T10:07:56.242Z,18.08
2023-04-13T10:10:51.212Z,16.13
2023-04-13T10:13:50.206Z,16.92
2023-04-13T10:17:03.227Z,18.88
2023-04-13T10:19:43.295Z,14.18
2023-04-13T10:22:30.234Z,17.77
2023-04-13T10:25:03.314Z,21.92
2023-04-13T10:27:50.245Z,17.05
2023-04-13T10:30:24.327Z,15.55
2023-04-13T10:33:17.243Z,18.25
2023-04-13T10:36:04.952Z,15.27
2023-04-13T10:38:53.233Z,14.48
2023-04-13T10:41:31.330Z,15.35
2023-04-13T10:44:18.234Z,16.65
2023-04-13T10:46:59.251Z,15.63
2023-04-13T10:49:47.240Z,15.77
2023-04-13T10:52:21.600Z,15.80
2023-04-13T10:55:09.309Z,20.33
2023-04-13T10:57:49.236Z,16.60
2023-04-13T11:00:46.445Z,16.90
2023-04-13T11:03:56.817Z,19.73
2023-04-13T11:06:58.271Z,16.58
2023-04-13T11:09:48.270Z,17.27
2023-04-13T11:12:21.537Z,16.20
2023-04-13T11:15:08.292Z,16.17
2023-04-13T11:17:41.420Z,15.88
2023-04-13T11:20:48.267Z,16.50
2023-04-13T11:23:24.006Z,15.15
2023-04-13T11:26:12.302Z,17.00
2023-04-13T11:28:55.279Z,17.45
2023-04-13T11:31:46.291Z,15.90
2023-04-13T11:34:19.374Z,20.58
2023-04-13T11:37:08.250Z,16.48
2023-04-13T11:39:50.284Z,14.18
2023-04-13T11:42:45.274Z,16.27
2023-04-13T11:45:34.289Z,19.60
2023-04-13T11:48:15.270Z,15.27
2023-04-13T11:51:18.273Z,16.05
2023-04-13T11:54:13.278Z,14.60
2023-04-13T11:57:01.303Z,17.48
2023-04-13T11:59:34.365Z,16.38
2023-04-13T12:02:29.857Z,16.27
2023-04-13T12:05:34.710Z,16.15
2023-04-13T12:08:15.591Z,14.38
2023-04-13T12:11:39.403Z,16.90
2023-04-13T12:14:10.276Z,15.85
2023-04-13T12:19:43.802Z,16.60
2023-04-13T12:22:57.547Z,15.30
2023-04-13T12:25:54.551Z,14.05
2023-04-13T12:28:43.288Z,14.40
2023-04-13T12:31:17.487Z,16.48
2023-04-13T12:34:04.300Z,14.70
2023-04-13T12:36:37.471Z,13.85
2023-04-13T12:39:24.304Z,14.55
2023-04-13T12:41:57.716Z,17.42
2023-04-13T12:44:44.314Z,14.00
2023-04-13T12:47:17.599Z,14.80
2023-04-13T12:50:04.299Z,16.80
2023-04-13T12:52:44.311Z,16.75
2023-04-13T12:55:38.341Z,16.08
2023-04-13T12:58:25.315Z,14.82
2023-04-13T13:00:58.518Z,14.32
2023-04-13T13:03:45.442Z,13.45
2023-04-13T13:06:18.419Z,13.77
2023-04-13T13:09:05.338Z,13.63
2023-04-13T13:11:45.327Z,13.93
2023-04-13T13:14:39.323Z,13.25
2023-04-13T13:17:26.378Z,13.55
2023-04-13T13:20:00.575Z,13.35
2023-04-13T13:22:49.299Z,13.55
2023-04-13T13:25:29.314Z,14.43
2023-04-13T13:28:23.316Z,14.10
2023-04-13T13:31:10.324Z,15.57
2023-04-13T13:33:43.568Z,15.07
2023-04-13T13:36:30.336Z,15.07
2023-04-13T13:39:05.297Z,14.05
2023-04-13T13:41:52.314Z,15.60
2023-04-13T13:44:33.776Z,16.52
2023-04-13T13:47:28.429Z,13.65
2023-04-13T13:50:22.347Z,14.27
2023-04-13T13:53:09.334Z,13.63
2023-04-13T13:55:42.481Z,13.65
2023-04-13T13:58:29.342Z,13.65
2023-04-13T14:01:09.486Z,15.98
2023-04-13T14:04:03.437Z,20.08
2023-04-13T14:06:50.344Z,14.23
2023-04-13T14:09:31.360Z,15.00
2023-04-13T14:12:25.346Z,15.07
2023-04-13T14:15:16.366Z,13.82
2023-04-13T14:18:02.576Z,14.98
2023-04-13T14:20:57.343Z,15.88
2023-04-13T14:23:37.386Z,13.52
2023-04-13T14:26:31.351Z,14.57
2023-04-13T14:29:18.394Z,13.93
2023-04-13T14:32:01.353Z,14.43
2023-04-13T14:34:55.360Z,15.13
2023-04-13T14:37:43.361Z,13.55
2023-04-13T14:40:21.754Z,15.13
2023-04-13T14:43:09.357Z,14.95
2023-04-13T14:45:42.451Z,14.43
2023-04-13T14:48:29.373Z,15.77
2023-04-13T14:51:02.474Z,14.38
2023-04-13T14:53:49.383Z,14.05
2023-04-13T14:56:23.883Z,14.75
2023-04-13T14:59:10.367Z,14.68
2023-04-13T15:01:50.460Z,14.40
2023-04-13T15:04:44.482Z,14.10
2023-04-13T15:07:36.409Z,14.02
2023-04-13T15:10:09.524Z,18.02
2023-04-13T15:12:56.370Z,15.18
2023-04-13T15:15:36.473Z,15.48
2023-04-13T15:18:30.363Z,15.05
2023-04-13T15:21:17.400Z,13.63
2023-04-13T15:23:57.385Z,13.30
2023-04-13T15:26:47.392Z,13.88
2023-04-13T15:29:20.812Z,15.57
2023-04-13T15:32:08.495Z,14.52
2023-04-13T15:34:41.490Z,13.77
2023-04-13T15:37:32.416Z,15.45
2023-04-13T15:40:07.693Z,14.57
2023-04-13T15:42:55.386Z,12.60
2023-04-13T15:45:35.474Z,13.57
2023-04-13T15:48:22.419Z,12.95
2023-04-13T15:51:10.427Z,14.82
2023-04-13T15:54:04.423Z,13.10
2023-04-13T15:56:51.392Z,13.57
2023-04-13T15:59:26.785Z,17.55
2023-04-13T16:02:20.429Z,13.88
2023-04-13T16:05:14.407Z,13.07
2023-04-13T16:08:05.408Z,13.18
2023-04-13T16:10:41.612Z,13.90
2023-04-13T16:13:37.582Z,15.05
2023-04-13T16:16:20.962Z,14.25
2023-04-13T16:19:07.423Z,14.77
2023-04-13T16:21:43.393Z,13.77
2023-04-13T16:24:30.393Z,14.00
2023-04-13T16:27:03.547Z,16.38
2023-04-13T16:29:50.415Z,13.63
2023-04-13T16:32:30.442Z,12.30
2023-04-13T16:35:18.414Z,13.23
2023-04-13T16:37:58.408Z,16.20
2023-04-13T16:40:52.427Z,20.88
2023-04-13T16:43:46.401Z,15.70
2023-04-13T16:46:33.565Z,14.30
2023-04-13T16:49:06.538Z,13.70
2023-04-13T16:51:54.456Z,13.10
2023-04-13T16:54:27.624Z,13.23
2023-04-13T16:57:14.432Z,13.40
2023-04-13T16:59:47.535Z,17.45
2023-04-13T17:02:41.509Z,15.55
2023-04-13T17:05:35.427Z,17.65
2023-04-13T17:08:29.421Z,15.95
2023-04-13T17:11:23.445Z,16.00
2023-04-13T17:14:10.424Z,21.02
2023-04-13T17:16:43.696Z,20.67
2023-04-13T17:19:30.490Z,16.65
2023-04-13T17:22:03.530Z,14.43
2023-04-13T17:24:50.439Z,14.60
2023-04-13T17:27:23.533Z,12.02
2023-04-13T17:30:10.430Z,16.40
2023-04-13T17:32:43.693Z,21.02
2023-04-13T17:35:30.435Z,13.55
2023-04-13T17:38:03.552Z,12.57
2023-04-13T17:40:51.443Z,16.35
2023-04-13T17:43:24.534Z,15.57
2023-04-13T17:46:11.494Z,16.23
2023-04-13T17:48:45.544Z,16.90
2023-04-13T17:51:32.468Z,19.63
2023-04-13T17:54:07.830Z,25.65
2023-04-13T17:56:54.478Z,26.60
2023-04-13T17:59:27.553Z,32.90
2023-04-13T18:02:21.525Z,25.80
2023-04-13T18:05:21.462Z,24.65
2023-04-13T18:08:08.446Z,23.30
2023-04-13T18:10:41.578Z,18.48
2023-04-13T18:13:28.487Z,22.02
2023-04-13T18:16:02.748Z,17.75
2023-04-13T18:18:49.461Z,22.00
2023-04-13T18:21:22.550Z,36.65
2023-04-13T18:24:09.522Z,31.73
2023-04-13T18:26:49.526Z,25.33
2023-04-13T18:29:43.471Z,20.75
2023-04-13T18:32:30.501Z,18.13
2023-04-13T18:35:04.714Z,22.08
2023-04-13T18:37:51.493Z,21.05
2023-04-13T18:40:24.573Z,17.67
2023-04-13T18:43:11.483Z,24.70
2023-04-13T18:45:45.581Z,30.67
2023-04-13T18:48:32.509Z,36.15
2023-04-13T18:51:16.491Z,37.45
2023-04-13T18:54:10.490Z,31.10
2023-04-13T18:56:57.500Z,36.30
2023-04-13T18:59:30.671Z,33.08
2023-04-13T19:02:18.592Z,32.08
2023-04-13T19:05:13.553Z,33.40
2023-04-13T19:08:04.490Z,33.38
2023-04-13T19:10:44.520Z,31.58
2023-04-13T19:13:31.487Z,40.88
2023-04-13T19:16:11.527Z,44.33
2023-04-13T19:18:58.864Z,47.38
2023-04-13T19:21:39.484Z,43.40
2023-04-13T19:24:33.491Z,39.60
2023-04-13T19:27:21.476Z,32.63
2023-04-13T19:30:01.533Z,35.50
2023-04-13T19:33:01.531Z,32.55
2023-04-13T19:35:55.508Z,31.60
2023-04-13T19:38:42.513Z,30.42
2023-04-13T19:41:19.590Z,35.05
2023-04-13T19:44:07.493Z,30.55
2023-04-13T19:46:41.615Z,35.13
2023-04-13T19:49:28.529Z,39.28
2023-04-13T19:52:08.522Z,34.63
2023-04-13T19:55:02.516Z,30.55
2023-04-13T19:57:49.504Z,32.42
2023-04-13T20:00:22.704Z,29.52
2023-04-13T20:03:09.653Z,28.70
2023-04-13T20:05:42.743Z,30.77
2023-04-13T20:08:30.517Z,23.80
2023-04-13T20:11:03.595Z,27.60
2023-04-13T20:13:52.511Z,29.83
2023-04-13T20:16:26.532Z,31.08
2023-04-13T20:19:15.492Z,32.25
2023-04-13T20:21:51.318Z,26.60
2023-04-13T20:24:38.499Z,28.40
2023-04-13T20:27:11.684Z,22.23
2023-04-13T20:29:58.537Z,29.05
2023-04-13T20:32:31.638Z,30.38
2023-04-13T20:35:18.541Z,25.38
2023-04-13T20:37:51.764Z,26.35
2023-04-13T20:40:42.550Z,27.10
2023-04-13T20:43:17.822Z,23.65
2023-04-13T20:46:04.545Z,25.05
2023-04-13T20:48:49.025Z,23.98
2023-04-13T20:51:42.537Z,28.98
2023-04-13T20:54:29.547Z,30.90
2023-04-13T20:57:09.533Z,29.55
2023-04-13T21:00:03.586Z,30.52
2023-04-13T21:02:59.643Z,31.42
2023-04-13T21:05:53.535Z,38.47
2023-04-13T21:08:47.547Z,30.27
2023-04-13T21:11:34.531Z,36.05
2023-04-13T21:14:07.666Z,32.97
2023-04-13T21:16:47.612Z,32.13
2023-04-13T21:19:28.288Z,35.78
2023-04-13T21:22:07.803Z,26.77
2023-04-13T21:24:47.570Z,26.00
2023-04-13T21:27:22.444Z,29.25
2023-04-13T21:30:09.731Z,32.45
2023-04-13T21:32:49.611Z,35.35
2023-04-13T21:35:43.536Z,28.65
2023-04-13T21:38:30.644Z,32.58
2023-04-13T21:41:06.643Z,29.00
2023-04-13T21:43:53.531Z,27.17
2023-04-13T21:46:27.936Z,26.88
2023-04-13T21:49:14.539Z,26.35
2023-04-13T21:51:47.678Z,31.50
2023-04-13T21:54:34.550Z,28.33
2023-04-13T21:57:07.680Z,21.48
2023-04-13T21:59:54.588Z,21.65
2023-04-13T22:02:27.807Z,21.65
2023-04-13T22:05:15.565Z,22.60
2023-04-13T22:07:48.705Z,21.77
2023-04-13T22:10:35.602Z,21.77
2023-04-13T22:13:15.587Z,22.85
2023-04-13T22:16:09.718Z,20.27
2023-04-13T22:18:56.588Z,18.65
2023-04-13T22:21:29.755Z,18.13
2023-04-13T22:24:16.594Z,19.50
2023-04-13T22:26:49.682Z,17.85
2023-04-13T22:29:36.601Z,18.95
2023-04-13T22:32:16.690Z,22.67
2023-04-13T22:35:10.572Z,21.38
2023-04-13T22:37:57.656Z,19.20
2023-04-13T22:40:31.146Z,22.02
2023-04-13T22:43:17.579Z,20.88
2023-04-13T22:45:57.575Z,16.92
2023-04-13T22:48:44.562Z,18.77
2023-04-13T22:51:24.593Z,18.05
2023-04-13T22:54:11.601Z,18.08
2023-04-13T22:56:51.635Z,17.52
2023-04-13T22:59:45.632Z,20.73
2023-04-13T23:02:32.794Z,19.83
2023-04-13T23:05:06.993Z,24.17
2023-04-13T23:07:53.590Z,20.35
2023-04-13T23:10:27.191Z,23.73
2023-04-13T23:13:13.738Z,23.02
2023-04-13T23:15:46.763Z,20.05
2023-04-13T23:18:34.595Z,19.27
2023-04-13T23:21:15.764Z,18.50
2023-04-13T23:24:02.623Z,19.90
2023-04-13T23:26:35.850Z,20.83
2023-04-13T23:29:22.698Z,19.33
2023-04-13T23:32:02.680Z,22.90
2023-04-13T23:34:49.594Z,21.40
2023-04-13T23:37:29.689Z,21.02
2023-04-13T23:40:23.573Z,18.77
2023-04-13T23:43:10.664Z,19.50
2023-04-13T23:45:44.237Z,19.02
2023-04-13T23:48:31.749Z,20.40
2023-04-13T23:51:04.710Z,18.25
2023-04-13T23:53:51.719Z,18.98
2023-04-13T23:56:24.802Z,20.88
2023-04-13T23:59:11.646Z,18.67
